createdAt,value
2018-09-02T00:01:09.615Z,18.50
2018-09-02T00:03:41.029Z,18.50
2018-09-02T00:06:12.668Z,18.50
2018-09-02T00:08:44.084Z,18.60
2018-09-02T00:11:15.146Z,18.50
2018-09-02T00:13:46.581Z,18.50
2018-09-02T00:16:17.882Z,18.60
2018-09-02T00:18:49.331Z,18.50
2018-09-02T00:21:20.783Z,18.60
2018-09-02T00:23:52.241Z,18.60
2018-09-02T00:26:23.773Z,18.70
2018-09-02T00:28:55.340Z,18.60
2018-09-02T00:31:26.901Z,18.60
2018-09-02T00:33:58.297Z,18.60
2018-09-02T00:36:29.540Z,18.60
2018-09-02T00:39:00.862Z,18.60
2018-09-02T00:41:32.203Z,18.60
2018-09-02T00:44:03.705Z,18.60
2018-09-02T00:46:35.395Z,18.60
2018-09-02T00:49:06.976Z,18.60
2018-09-02T00:51:38.210Z,18.60
2018-09-02T00:54:09.539Z,18.50
2018-09-02T00:56:41.024Z,18.50
2018-09-02T00:59:12.356Z,18.40
2018-09-02T01:01:43.642Z,18.40
2018-09-02T01:04:15.009Z,18.50
2018-09-02T01:06:46.521Z,18.60
2018-09-02T01:09:17.829Z,18.60
2018-09-02T01:11:49.156Z,18.50
2018-09-02T01:14:20.590Z,18.40
2018-09-02T01:16:52.094Z,18.40
2018-09-02T01:19:23.561Z,18.40
2018-09-02T01:21:54.932Z,18.50
2018-09-02T01:24:26.185Z,18.50
2018-09-02T01:26:57.559Z,18.50
2018-09-02T01:29:29.043Z,18.50
2018-09-02T01:32:00.494Z,18.50
2018-09-02T01:34:32.228Z,18.50
2018-09-02T01:37:03.801Z,18.50
2018-09-02T01:39:35.425Z,18.50
2018-09-02T01:42:06.838Z,18.40
2018-09-02T01:44:38.349Z,18.40
2018-09-02T01:47:09.856Z,18.40
2018-09-02T01:49:41.446Z,18.40
2018-09-02T01:52:13.049Z,18.40
2018-09-02T01:54:44.249Z,18.30
2018-09-02T01:57:15.794Z,18.30
2018-09-02T01:59:47.212Z,18.30
2018-09-02T02:02:18.334Z,18.30
2018-09-02T02:04:49.608Z,18.30
2018-09-02T02:07:21.171Z,18.20
2018-09-02T02:09:52.400Z,18.10
2018-09-02T02:12:23.589Z,18.10
2018-09-02T02:14:55.236Z,18.10
2018-09-02T02:17:26.788Z,18.00
2018-09-02T02:19:58.454Z,18.00
2018-09-02T02:22:29.836Z,18.00
2018-09-02T02:25:01.577Z,17.90
2018-09-02T02:27:33.069Z,17.90
2018-09-02T02:30:04.495Z,17.90
2018-09-02T02:32:35.860Z,18.00
2018-09-02T02:35:07.419Z,18.00
2018-09-02T02:37:38.949Z,17.90
2018-09-02T02:40:10.319Z,17.80
2018-09-02T02:42:41.776Z,17.80
2018-09-02T02:45:13.113Z,17.80
2018-09-02T02:47:44.648Z,17.80
2018-09-02T02:50:16.127Z,17.80
2018-09-02T02:52:52.533Z,17.90
2018-09-02T02:55:24.134Z,17.80
2018-09-02T02:57:55.165Z,17.80
2018-09-02T03:00:26.720Z,17.80
2018-09-02T03:02:58.002Z,17.80
2018-09-02T03:05:29.715Z,17.70
2018-09-02T03:08:02.274Z,17.70
2018-09-02T03:10:33.783Z,17.70
2018-09-02T03:13:05.239Z,17.70
2018-09-02T03:15:36.766Z,17.70
2018-09-02T03:18:08.186Z,17.80
2018-09-02T03:20:39.883Z,17.70
2018-09-02T03:23:11.315Z,17.70
2018-09-02T03:25:42.719Z,17.70
2018-09-02T03:28:14.072Z,17.70
2018-09-02T03:30:45.601Z,17.70
2018-09-02T03:33:17.019Z,17.80
2018-09-02T03:35:48.476Z,17.70
2018-09-02T03:38:19.830Z,17.70
2018-09-02T03:40:51.187Z,17.70
2018-09-02T03:43:22.410Z,17.80
2018-09-02T03:45:53.783Z,17.80
2018-09-02T03:48:24.946Z,17.90
2018-09-02T03:50:56.397Z,17.90
2018-09-02T03:53:27.892Z,17.90
2018-09-02T03:55:59.229Z,18.00
2018-09-02T03:58:30.760Z,18.00
2018-09-02T04:01:02.296Z,18.00
2018-09-02T04:03:33.633Z,18.00
2018-09-02T04:06:05.474Z,18.00
2018-09-02T04:08:37.533Z,17.90
2018-09-02T04:11:09.099Z,17.90
2018-09-02T04:13:40.448Z,17.90
2018-09-02T04:16:11.912Z,17.90
2018-09-02T04:18:43.162Z,18.00
2018-09-02T04:21:14.376Z,18.00
2018-09-02T04:23:46.778Z,18.00
2018-09-02T04:26:18.403Z,18.00
2018-09-02T04:28:49.776Z,18.00
2018-09-02T04:31:21.323Z,17.90
2018-09-02T04:33:52.620Z,17.90
2018-09-02T04:36:24.456Z,17.90
2018-09-02T04:38:55.886Z,18.00
2018-09-02T04:41:27.269Z,18.10
2018-09-02T04:43:58.797Z,18.30
2018-09-02T04:46:30.548Z,18.30
2018-09-02T04:49:02.336Z,18.40
2018-09-02T04:51:33.836Z,18.50
2018-09-02T04:54:05.264Z,18.60
2018-09-02T04:56:36.562Z,18.70
2018-09-02T04:59:08.069Z,18.80
2018-09-02T05:01:39.838Z,18.90
2018-09-02T05:04:11.476Z,18.90
2018-09-02T05:06:44.137Z,18.90
2018-09-02T05:09:15.646Z,18.90
2018-09-02T05:11:47.064Z,19.00
2018-09-02T05:14:18.805Z,19.10
2018-09-02T05:16:50.419Z,19.20
2018-09-02T05:19:22.236Z,19.40
2018-09-02T05:21:53.635Z,19.20
2018-09-02T05:24:25.350Z,18.90
2018-09-02T05:26:56.908Z,18.80
2018-09-02T05:29:28.391Z,18.80
2018-09-02T05:31:59.872Z,18.90
2018-09-02T05:34:31.305Z,19.10
2018-09-02T05:37:02.984Z,19.20
2018-09-02T05:39:34.498Z,19.40
2018-09-02T05:42:06.182Z,19.80
2018-09-02T05:44:37.532Z,20.30
2018-09-02T05:47:09.077Z,20.70
2018-09-02T05:49:41.619Z,21.00
2018-09-02T05:52:13.255Z,21.30
2018-09-02T05:54:44.808Z,21.70
2018-09-02T05:57:16.016Z,21.90
2018-09-02T05:59:47.452Z,22.10
2018-09-02T06:02:19.053Z,22.30
2018-09-02T06:04:51.012Z,22.50
2018-09-02T06:07:22.173Z,22.80
2018-09-02T06:09:53.651Z,22.90
2018-09-02T06:12:25.148Z,22.90
2018-09-02T06:14:56.629Z,22.50
2018-09-02T06:17:28.347Z,22.20
2018-09-02T06:20:00.072Z,22.10
2018-09-02T06:22:31.531Z,22.40
2018-09-02T06:25:02.878Z,22.80
2018-09-02T06:27:34.389Z,23.10
2018-09-02T06:30:05.660Z,23.10
2018-09-02T06:32:37.015Z,23.30
2018-09-02T06:35:08.433Z,23.40
2018-09-02T06:37:40.185Z,23.50
2018-09-02T06:40:11.436Z,23.80
2018-09-02T06:42:43.031Z,24.30
2018-09-02T06:45:14.255Z,24.80
2018-09-02T06:47:45.732Z,25.30
2018-09-02T06:50:17.286Z,25.80
2018-09-02T06:52:48.680Z,25.50
2018-09-02T06:55:20.137Z,24.80
2018-09-02T06:57:51.565Z,24.10
2018-09-02T07:00:23.051Z,23.70
2018-09-02T07:02:54.451Z,23.30
2018-09-02T07:05:26.145Z,22.90
2018-09-02T07:07:57.775Z,22.70
2018-09-02T07:10:29.349Z,22.40
2018-09-02T07:13:00.533Z,22.30
2018-09-02T07:15:31.931Z,22.30
2018-09-02T07:18:03.634Z,22.40
2018-09-02T07:20:35.133Z,22.20
2018-09-02T07:23:06.582Z,22.20
2018-09-02T07:25:38.032Z,22.40
2018-09-02T07:28:09.314Z,22.30
2018-09-02T07:30:40.952Z,22.60
2018-09-02T07:33:12.760Z,22.90
2018-09-02T07:35:44.311Z,23.10
2018-09-02T07:38:15.889Z,22.90
2018-09-02T07:40:47.325Z,22.90
2018-09-02T07:43:18.708Z,23.40
2018-09-02T07:45:50.063Z,24.20
2018-09-02T07:48:21.531Z,24.60
2018-09-02T07:50:52.936Z,24.70
2018-09-02T07:53:24.369Z,25.10
2018-09-02T07:55:55.775Z,25.60
2018-09-02T07:58:27.633Z,26.20
2018-09-02T08:00:59.069Z,26.90
2018-09-02T08:03:30.179Z,27.20
2018-09-02T08:06:02.613Z,27.00
2018-09-02T08:08:34.018Z,26.40
2018-09-02T08:11:05.651Z,26.10
2018-09-02T08:13:37.053Z,25.80
2018-09-02T08:16:08.541Z,25.70
2018-09-02T08:18:39.805Z,26.40
2018-09-02T08:21:11.218Z,26.90
2018-09-02T08:23:42.805Z,27.60
2018-09-02T08:26:14.074Z,28.10
2018-09-02T08:28:45.714Z,28.10
2018-09-02T08:31:17.499Z,28.30
2018-09-02T08:33:49.003Z,28.50
2018-09-02T08:36:20.348Z,29.10
2018-09-02T08:38:51.785Z,29.50
2018-09-02T08:41:24.015Z,29.60
2018-09-02T08:43:54.979Z,28.80
2018-09-02T08:46:26.540Z,28.50
2018-09-02T08:48:58.009Z,28.30
2018-09-02T08:51:29.653Z,28.60
2018-09-02T08:54:01.232Z,29.10
2018-09-02T08:56:32.625Z,29.40
2018-09-02T08:59:04.292Z,30.00
2018-09-02T09:01:36.001Z,30.80
2018-09-02T09:04:07.667Z,31.40
2018-09-02T09:06:39.093Z,31.10
2018-09-02T09:09:10.568Z,30.60
2018-09-02T09:11:41.901Z,30.30
2018-09-02T09:14:13.613Z,30.50
2018-09-02T09:16:45.479Z,31.10
2018-09-02T09:19:16.906Z,31.50
2018-09-02T09:21:48.496Z,30.70
2018-09-02T09:24:19.951Z,30.20
2018-09-02T09:26:51.668Z,29.60
2018-09-02T09:29:23.209Z,29.50
2018-09-02T09:31:54.684Z,29.70
2018-09-02T09:34:26.166Z,30.20
2018-09-02T09:36:57.417Z,30.60
2018-09-02T09:39:28.918Z,30.70
2018-09-02T09:42:00.435Z,30.50
2018-09-02T09:44:31.832Z,30.20
2018-09-02T09:47:03.345Z,30.70
2018-09-02T09:49:34.855Z,31.00
2018-09-02T09:52:06.933Z,30.90
2018-09-02T09:54:38.579Z,30.80
2018-09-02T09:57:09.895Z,30.70
2018-09-02T09:59:41.721Z,30.50
2018-09-02T10:02:13.110Z,30.60
2018-09-02T10:04:44.687Z,30.50
2018-09-02T10:07:16.239Z,30.20
2018-09-02T10:09:47.788Z,30.10
2018-09-02T10:12:19.354Z,29.90
2018-09-02T10:14:50.864Z,29.40
2018-09-02T10:17:22.461Z,28.80
2018-09-02T10:19:53.787Z,28.40
2018-09-02T10:22:25.516Z,28.10
2018-09-02T10:24:57.068Z,27.80
2018-09-02T10:27:28.638Z,27.70
2018-09-02T10:30:00.091Z,27.80
2018-09-02T10:32:31.437Z,27.80
2018-09-02T10:35:03.201Z,28.00
2018-09-02T10:37:34.568Z,28.10
2018-09-02T10:40:06.307Z,28.20
2018-09-02T10:42:37.776Z,28.30
2018-09-02T10:45:09.337Z,28.40
2018-09-02T10:47:41.056Z,28.20
2018-09-02T10:50:12.971Z,28.10
2018-09-02T10:52:44.586Z,27.70
2018-09-02T10:55:15.926Z,27.50
2018-09-02T10:57:47.423Z,27.50
2018-09-02T11:00:19.117Z,27.50
2018-09-02T11:02:50.411Z,27.30
2018-09-02T11:05:21.713Z,27.40
2018-09-02T11:07:53.379Z,27.30
2018-09-02T11:10:24.819Z,27.50
2018-09-02T11:12:56.625Z,27.50
2018-09-02T11:15:28.319Z,27.60
2018-09-02T11:18:00.033Z,27.70
2018-09-02T11:20:31.749Z,27.60
2018-09-02T11:23:02.927Z,27.50
2018-09-02T11:25:34.800Z,27.50
2018-09-02T11:28:06.767Z,27.30
2018-09-02T11:30:38.232Z,27.10
2018-09-02T11:33:10.202Z,27.00
2018-09-02T11:35:42.240Z,26.90
2018-09-02T11:38:14.151Z,26.60
2018-09-02T11:40:46.161Z,26.20
2018-09-02T11:43:17.612Z,25.90
2018-09-02T11:45:49.467Z,25.80
2018-09-02T11:48:20.898Z,25.80
2018-09-02T11:50:52.329Z,25.60
2018-09-02T11:53:23.388Z,25.40
2018-09-02T11:55:54.547Z,25.30
2018-09-02T11:58:26.085Z,25.20
2018-09-02T12:00:57.633Z,25.10
2018-09-02T12:03:29.058Z,25.10
2018-09-02T12:06:00.367Z,25.10
2018-09-02T12:08:31.962Z,25.00
2018-09-02T12:11:03.654Z,25.00
2018-09-02T12:13:35.187Z,25.10
2018-09-02T12:16:06.664Z,25.00
2018-09-02T12:18:38.232Z,25.20
2018-09-02T12:21:10.010Z,25.30
2018-09-02T12:23:41.969Z,25.30
2018-09-02T12:26:13.194Z,25.40
2018-09-02T12:28:44.590Z,25.50
2018-09-02T12:31:16.218Z,25.70
2018-09-02T12:33:47.847Z,25.70
2018-09-02T12:36:19.156Z,25.80
2018-09-02T12:38:50.472Z,25.90
2018-09-02T12:41:22.107Z,25.70
2018-09-02T12:43:54.144Z,25.70
2018-09-02T12:46:25.546Z,25.50
2018-09-02T12:48:56.997Z,25.60
2018-09-02T12:51:28.522Z,25.80
2018-09-02T12:54:00.395Z,25.90
2018-09-02T12:56:31.674Z,26.20
2018-09-02T12:59:02.698Z,26.40
2018-09-02T13:01:34.328Z,26.60
2018-09-02T13:04:05.638Z,26.60
2018-09-02T13:06:36.920Z,26.50
2018-09-02T13:09:09.462Z,26.40
2018-09-02T13:11:40.964Z,26.50
2018-09-02T13:14:12.452Z,26.70
2018-09-02T13:16:44.035Z,26.80
2018-09-02T13:19:15.189Z,26.60
2018-09-02T13:21:46.690Z,26.70
2018-09-02T13:24:17.773Z,26.70
2018-09-02T13:26:48.790Z,26.70
2018-09-02T13:29:19.912Z,26.80
2018-09-02T13:31:50.964Z,26.70
2018-09-02T13:34:22.364Z,26.70
2018-09-02T13:36:53.939Z,26.60
2018-09-02T13:39:25.270Z,26.50
2018-09-02T13:41:56.654Z,26.40
2018-09-02T13:44:28.550Z,26.40
2018-09-02T13:47:00.152Z,26.40
2018-09-02T13:49:31.694Z,26.40
2018-09-02T13:52:03.226Z,26.30
2018-09-02T13:54:34.727Z,26.20
2018-09-02T13:57:06.119Z,26.10
2018-09-02T13:59:37.774Z,26.00
2018-09-02T14:02:10.750Z,26.00
2018-09-02T14:08:46.217Z,25.90
2018-09-02T14:11:17.950Z,25.90
2018-09-02T14:13:49.392Z,25.90
2018-09-02T14:16:21.124Z,25.90
2018-09-02T14:18:52.724Z,26.10
2018-09-02T14:21:23.997Z,26.20
2018-09-02T14:23:55.372Z,26.10
2018-09-02T14:26:26.823Z,25.90
2018-09-02T14:28:59.381Z,25.50
2018-09-02T14:31:30.913Z,25.20
2018-09-02T14:34:02.490Z,25.20
2018-09-02T14:36:33.931Z,25.20
2018-09-02T14:39:31.945Z,25.20
2018-09-02T14:42:03.560Z,25.10
2018-09-02T14:44:35.178Z,25.10
2018-09-02T14:47:06.954Z,25.20
2018-09-02T14:49:38.884Z,25.20
2018-09-02T14:52:10.373Z,25.10
2018-09-02T14:54:42.120Z,25.10
2018-09-02T14:57:13.785Z,25.00
2018-09-02T14:59:45.289Z,25.10
2018-09-02T15:02:16.823Z,25.00
2018-09-02T15:04:48.666Z,25.00
2018-09-02T15:07:20.353Z,24.90
2018-09-02T15:09:51.826Z,24.80
2018-09-02T15:12:23.251Z,24.90
2018-09-02T15:14:55.001Z,24.90
2018-09-02T15:17:26.494Z,24.90
2018-09-02T15:19:58.164Z,24.80
2018-09-02T15:22:29.460Z,24.70
2018-09-02T15:25:00.793Z,24.70
2018-09-02T15:27:32.347Z,24.50
2018-09-02T15:30:03.813Z,24.40
2018-09-02T15:32:35.215Z,24.30
2018-09-02T15:35:07.047Z,24.20
2018-09-02T15:37:38.744Z,24.20
2018-09-02T15:40:10.347Z,24.20
2018-09-02T15:42:42.131Z,24.20
2018-09-02T15:45:13.894Z,24.30
2018-09-02T15:47:45.450Z,24.30
2018-09-02T15:50:16.970Z,24.40
2018-09-02T15:52:48.468Z,24.30
2018-09-02T15:55:19.958Z,24.00
2018-09-02T15:57:52.124Z,23.90
2018-09-02T16:00:23.854Z,23.80
2018-09-02T16:02:55.473Z,23.90
2018-09-02T16:05:27.047Z,23.90
2018-09-02T16:07:58.576Z,23.80
2018-09-02T16:10:30.031Z,23.70
2018-09-02T16:13:01.638Z,23.60
2018-09-02T16:15:33.132Z,23.50
2018-09-02T16:18:04.670Z,23.40
2018-09-02T16:20:36.391Z,23.50
2018-09-02T16:23:07.867Z,23.40
2018-09-02T16:25:39.656Z,23.30
2018-09-02T16:28:11.187Z,23.20
2018-09-02T16:30:42.686Z,23.20
2018-09-02T16:33:14.389Z,23.10
2018-09-02T16:35:46.252Z,23.10
2018-09-02T16:38:17.826Z,23.10
2018-09-02T16:40:49.285Z,23.10
2018-09-02T16:43:20.867Z,23.10
2018-09-02T16:45:52.452Z,22.90
2018-09-02T16:48:24.918Z,23.00
2018-09-02T16:50:56.303Z,23.10
2018-09-02T16:53:27.783Z,23.10
2018-09-02T16:55:59.418Z,23.20
2018-09-02T16:58:31.240Z,23.10
2018-09-02T17:01:02.939Z,23.10
2018-09-02T17:03:40.590Z,23.10
2018-09-02T17:06:12.092Z,23.10
2018-09-02T17:08:43.746Z,22.90
2018-09-02T17:11:15.026Z,22.90
2018-09-02T17:13:46.842Z,22.90
2018-09-02T17:16:18.673Z,23.00
2018-09-02T17:18:52.974Z,23.00
2018-09-02T17:21:24.438Z,22.90
2018-09-02T17:23:56.041Z,22.90
2018-09-02T17:26:27.547Z,22.70
2018-09-02T17:28:59.236Z,22.60
2018-09-02T17:31:30.660Z,22.50
2018-09-02T17:34:02.075Z,22.60
2018-09-02T17:36:33.689Z,22.50
2018-09-02T17:39:07.912Z,22.40
2018-09-02T17:41:39.880Z,22.40
2018-09-02T17:44:11.479Z,22.20
2018-09-02T17:46:43.152Z,22.20
2018-09-02T17:49:16.642Z,22.10
2018-09-02T17:51:48.296Z,22.20
2018-09-02T17:54:19.839Z,22.20
2018-09-02T17:56:51.441Z,22.20
2018-09-02T17:59:23.322Z,22.10
2018-09-02T18:01:55.191Z,22.10
2018-09-02T18:04:27.620Z,22.10
2018-09-02T18:06:59.314Z,22.10
2018-09-02T18:09:30.804Z,22.10
2018-09-02T18:12:02.321Z,22.10
2018-09-02T18:14:33.929Z,22.10
2018-09-02T18:17:05.464Z,22.20
2018-09-02T18:19:37.015Z,22.30
2018-09-02T18:22:08.936Z,22.30
2018-09-02T18:24:40.764Z,22.30
2018-09-02T18:27:13.405Z,22.40
2018-09-02T18:29:48.795Z,22.30
2018-09-02T18:32:20.272Z,22.40
2018-09-02T18:34:52.034Z,22.30
2018-09-02T18:37:23.757Z,22.30
2018-09-02T18:39:57.758Z,22.30
2018-09-02T18:42:29.491Z,22.30
2018-09-02T18:45:01.691Z,22.20
2018-09-02T18:47:33.587Z,22.20
2018-09-02T18:50:06.716Z,22.10
2018-09-02T18:52:38.572Z,22.20
2018-09-02T18:55:10.297Z,22.20
2018-09-02T18:57:42.645Z,22.30
2018-09-02T19:00:18.231Z,22.30
2018-09-02T19:02:50.274Z,22.20
2018-09-02T19:05:21.862Z,22.20
2018-09-02T19:07:53.337Z,22.10
2018-09-02T19:10:25.324Z,22.00
2018-09-02T19:12:57.594Z,22.00
2018-09-02T19:15:29.582Z,22.10
2018-09-02T19:18:02.340Z,22.10
2018-09-02T19:20:34.449Z,22.10
2018-09-02T19:23:06.501Z,22.00
2018-09-02T19:25:38.583Z,21.90
2018-09-02T19:28:11.129Z,21.90
2018-09-02T19:30:43.219Z,21.90
2018-09-02T19:33:15.301Z,21.90
2018-09-02T19:35:47.473Z,21.90
2018-09-02T19:38:20.005Z,22.00
2018-09-02T19:40:51.887Z,22.00
2018-09-02T19:43:23.939Z,22.00
2018-09-02T19:45:56.372Z,22.00
2018-09-02T19:48:28.627Z,22.00
2018-09-02T19:51:00.382Z,21.90
2018-09-02T19:53:32.528Z,21.90
2018-09-02T19:56:04.434Z,21.80
2018-09-02T19:58:36.321Z,21.90
2018-09-02T20:01:08.153Z,21.80
2018-09-02T20:03:39.930Z,21.90
2018-09-02T20:06:11.650Z,21.90
2018-09-02T20:08:43.267Z,22.00
2018-09-02T20:11:15.355Z,21.90
2018-09-02T20:13:46.913Z,21.90
2018-09-02T20:16:19.156Z,21.80
2018-09-02T20:18:50.884Z,21.80
2018-09-02T20:21:22.389Z,21.80
2018-09-02T20:23:54.035Z,21.80
2018-09-02T20:26:26.093Z,21.90
2018-09-02T20:28:57.718Z,21.90
2018-09-02T20:31:29.498Z,21.90
2018-09-02T20:34:01.554Z,21.90
2018-09-02T20:36:33.643Z,21.80
2018-09-02T20:39:07.212Z,21.90
2018-09-02T20:41:38.885Z,21.90
2018-09-02T20:44:10.240Z,21.90
2018-09-02T20:46:42.063Z,21.80
2018-09-02T20:49:13.952Z,21.70
2018-09-02T20:51:45.422Z,21.60
2018-09-02T20:54:16.938Z,21.70
2018-09-02T20:56:48.475Z,21.70
2018-09-02T20:59:20.383Z,21.70
2018-09-02T21:01:51.612Z,21.60
2018-09-02T21:04:23.257Z,21.60
2018-09-02T21:06:54.789Z,21.40
2018-09-02T21:09:26.257Z,21.40
2018-09-02T21:11:57.960Z,21.40
2018-09-02T21:14:29.587Z,21.20
2018-09-02T21:17:00.948Z,21.00
2018-09-02T21:19:32.383Z,20.80
2018-09-02T21:22:04.353Z,20.70
2018-09-02T21:24:35.893Z,20.50
2018-09-02T21:27:07.473Z,20.30
2018-09-02T21:29:39.886Z,20.20
2018-09-02T21:32:11.464Z,20.30
2018-09-02T21:34:43.593Z,20.20
2018-09-02T21:37:15.141Z,20.20
2018-09-02T21:39:46.767Z,20.00
2018-09-02T21:42:18.281Z,19.90
2018-09-02T21:44:49.846Z,20.00
2018-09-02T21:47:21.745Z,20.00
2018-09-02T21:49:53.384Z,20.00
2018-09-02T21:52:25.008Z,20.00
2018-09-02T21:54:56.460Z,20.00
2018-09-02T21:57:28.055Z,20.10
2018-09-02T21:59:59.887Z,20.10
2018-09-02T22:02:31.528Z,20.10
2018-09-02T22:05:03.251Z,20.10
2018-09-02T22:07:34.726Z,20.10
2018-09-02T22:10:06.156Z,20.10
2018-09-02T22:12:37.527Z,20.20
2018-09-02T22:15:09.948Z,20.20
2018-09-02T22:17:41.562Z,20.10
2018-09-02T22:20:12.970Z,20.10
2018-09-02T22:22:44.147Z,20.10
2018-09-02T22:25:15.944Z,20.10
2018-09-02T22:27:47.511Z,20.00
2018-09-02T22:41:05.350Z,20.00
2018-09-02T22:43:36.871Z,20.00
2018-09-02T22:46:08.302Z,20.10
2018-09-02T22:48:39.763Z,20.00
2018-09-02T22:51:11.239Z,19.90
2018-09-02T22:53:42.549Z,19.70
2018-09-02T22:56:14.127Z,19.80
2018-09-02T22:58:45.564Z,19.80
2018-09-02T23:01:16.876Z,19.60
2018-09-02T23:03:48.305Z,19.50
2018-09-02T23:06:19.912Z,19.40
2018-09-02T23:08:51.429Z,19.40
2018-09-02T23:11:22.764Z,19.30
2018-09-02T23:13:54.026Z,19.30
2018-09-02T23:16:25.188Z,19.30
2018-09-02T23:18:56.939Z,19.50
2018-09-02T23:21:28.254Z,19.60
2018-09-02T23:23:59.788Z,19.60
2018-09-02T23:26:31.059Z,19.70
2018-09-02T23:29:02.480Z,19.60
2018-09-02T23:31:34.522Z,19.60
2018-09-02T23:34:06.080Z,19.70
2018-09-02T23:36:37.335Z,19.80
2018-09-02T23:39:11.704Z,19.80
2018-09-02T23:41:43.104Z,19.70
2018-09-02T23:44:14.369Z,19.60
2018-09-02T23:46:45.741Z,19.60
2018-09-02T23:49:17.264Z,19.60
2018-09-02T23:51:48.632Z,19.70
2018-09-02T23:54:19.877Z,19.80
2018-09-02T23:56:51.380Z,19.80
2018-09-02T23:59:22.762Z,19.70
